createdAt,value
2023-03-20T00:01:10.571Z,11.90
2023-03-20T00:03:57.340Z,11.90
2023-03-20T00:06:42.675Z,11.90
2023-03-20T00:09:28.602Z,11.80
2023-03-20T00:12:15.742Z,11.70
2023-03-20T00:15:03.208Z,11.70
2023-03-20T00:17:48.627Z,11.60
2023-03-20T00:20:34.627Z,11.60
2023-03-20T00:23:20.874Z,11.60
2023-03-20T00:26:06.489Z,11.50
2023-03-20T00:28:52.573Z,11.60
2023-03-20T00:31:39.518Z,11.70
2023-03-20T00:34:27.275Z,11.70
2023-03-20T00:37:12.815Z,11.60
2023-03-20T00:39:58.584Z,11.60
2023-03-20T00:42:46.571Z,11.60
2023-03-20T00:45:35.179Z,11.60
2023-03-20T00:48:20.703Z,11.60
2023-03-20T00:51:08.530Z,11.70
2023-03-20T00:53:54.352Z,11.60
2023-03-20T00:56:45.808Z,11.50
2023-03-20T00:59:36.161Z,11.50
2023-03-20T01:02:22.209Z,11.60
2023-03-20T01:05:08.231Z,11.50
2023-03-20T01:07:53.691Z,11.50
2023-03-20T01:10:41.055Z,11.40
2023-03-20T01:13:30.689Z,11.40
2023-03-20T01:16:19.442Z,11.50
2023-03-20T01:19:05.547Z,11.40
2023-03-20T01:21:51.508Z,11.30
2023-03-20T01:24:40.581Z,11.30
2023-03-20T01:27:26.382Z,11.40
2023-03-20T01:30:16.889Z,11.40
2023-03-20T01:33:06.740Z,11.40
2023-03-20T01:35:52.842Z,11.50
2023-03-20T01:38:38.760Z,11.50
2023-03-20T01:41:25.775Z,11.50
2023-03-20T01:44:18.246Z,11.50
2023-03-20T01:47:12.466Z,11.50
2023-03-20T01:50:17.363Z,11.60
2023-03-20T01:53:06.098Z,11.50
2023-03-20T01:55:57.121Z,11.50
2023-03-20T01:58:48.882Z,11.50
2023-03-20T02:01:36.789Z,11.50
2023-03-20T02:04:26.461Z,11.50
2023-03-20T02:07:18.582Z,11.50
2023-03-20T02:10:17.212Z,11.40
2023-03-20T02:13:19.602Z,11.30
2023-03-20T02:16:11.193Z,11.20
2023-03-20T02:19:29.166Z,11.30
2023-03-20T02:22:34.538Z,11.30
2023-03-20T02:25:23.511Z,11.30
2023-03-20T02:28:09.367Z,11.40
2023-03-20T02:31:14.550Z,11.40
2023-03-20T02:34:17.499Z,11.40
2023-03-20T02:37:18.878Z,11.50
2023-03-20T02:40:10.986Z,11.50
2023-03-20T02:43:20.475Z,11.40
2023-03-20T02:46:34.325Z,11.40
2023-03-20T02:49:31.890Z,11.30
2023-03-20T02:52:17.613Z,11.30
2023-03-20T02:55:12.101Z,11.40
2023-03-20T02:58:02.177Z,11.40
2023-03-20T03:00:55.498Z,11.40
2023-03-20T03:03:48.689Z,11.40
2023-03-20T03:06:36.502Z,11.40
2023-03-20T03:09:41.385Z,11.40
2023-03-20T03:12:32.214Z,11.50
2023-03-20T03:15:37.660Z,11.60
2023-03-20T03:18:24.914Z,11.50
2023-03-20T03:21:13.601Z,11.40
2023-03-20T03:23:59.905Z,11.50
2023-03-20T03:26:45.871Z,11.40
2023-03-20T03:29:34.146Z,11.40
2023-03-20T03:32:23.138Z,11.30
2023-03-20T03:35:15.484Z,11.30
2023-03-20T03:38:11.159Z,11.40
2023-03-20T03:40:56.816Z,11.40
2023-03-20T03:43:49.972Z,11.50
2023-03-20T03:46:44.631Z,11.40
2023-03-20T03:49:36.207Z,11.40
2023-03-20T03:52:23.508Z,11.40
2023-03-20T03:55:12.123Z,11.40
2023-03-20T03:58:23.568Z,11.40
2023-03-20T04:01:13.286Z,11.40
2023-03-20T04:04:01.123Z,11.40
2023-03-20T04:06:46.721Z,11.40
2023-03-20T04:09:33.651Z,11.40
2023-03-20T04:12:32.000Z,11.40
2023-03-20T04:15:18.230Z,11.30
2023-03-20T04:18:04.234Z,11.30
2023-03-20T04:20:49.928Z,11.30
2023-03-20T04:23:35.888Z,11.30
2023-03-20T04:26:21.935Z,11.30
2023-03-20T04:29:09.285Z,11.30
2023-03-20T04:32:27.330Z,11.30
2023-03-20T04:35:27.248Z,11.30
2023-03-20T04:38:23.125Z,11.40
2023-03-20T04:41:10.548Z,11.40
2023-03-20T04:43:56.735Z,11.50
2023-03-20T04:46:42.993Z,11.50
2023-03-20T04:49:33.742Z,11.50
2023-03-20T04:52:19.408Z,11.50
2023-03-20T04:55:05.689Z,11.40
2023-03-20T04:57:51.057Z,11.40
2023-03-20T05:00:36.978Z,11.40
2023-03-20T05:03:24.015Z,11.40
2023-03-20T05:06:09.841Z,11.30
2023-03-20T05:08:59.605Z,11.40
2023-03-20T05:11:45.977Z,11.40
2023-03-20T05:14:50.500Z,11.50
2023-03-20T05:17:55.078Z,11.50
2023-03-20T05:20:53.004Z,11.60
2023-03-20T05:24:10.330Z,11.60
2023-03-20T05:27:24.734Z,11.50
2023-03-20T05:30:43.233Z,11.60
2023-03-20T05:33:58.248Z,11.60
2023-03-20T05:36:54.882Z,11.50
2023-03-20T05:40:00.411Z,11.50
2023-03-20T05:42:55.342Z,11.50
2023-03-20T05:45:59.457Z,11.50
2023-03-20T05:49:11.587Z,11.50
2023-03-20T05:52:16.191Z,11.50
2023-03-20T05:55:20.300Z,11.50
2023-03-20T05:58:21.074Z,11.50
2023-03-20T06:01:35.414Z,11.60
2023-03-20T06:04:32.206Z,11.50
2023-03-20T06:07:30.396Z,11.60
2023-03-20T06:10:20.872Z,11.50
2023-03-20T06:13:07.901Z,11.50
2023-03-20T06:15:53.657Z,11.60
2023-03-20T06:18:39.697Z,11.60
2023-03-20T06:21:27.163Z,11.60
2023-03-20T06:24:14.012Z,11.60
2023-03-20T06:26:59.813Z,11.60
2023-03-20T06:29:46.377Z,11.60
2023-03-20T06:32:35.827Z,11.60
2023-03-20T06:35:24.097Z,11.60
2023-03-20T06:38:11.469Z,11.60
2023-03-20T06:40:58.231Z,11.60
2023-03-20T06:43:44.366Z,11.70
2023-03-20T06:46:30.890Z,11.70
2023-03-20T06:49:16.987Z,11.70
2023-03-20T06:52:04.344Z,11.70
2023-03-20T06:54:52.153Z,11.70
2023-03-20T06:57:38.759Z,11.80
2023-03-20T07:00:24.511Z,11.80
2023-03-20T07:03:10.487Z,11.80
2023-03-20T07:05:56.241Z,11.80
2023-03-20T07:08:42.115Z,11.80
2023-03-20T07:11:28.808Z,11.80
2023-03-20T07:14:15.790Z,11.70
2023-03-20T07:17:06.911Z,11.70
2023-03-20T07:19:52.839Z,11.60
2023-03-20T07:22:38.747Z,11.60
2023-03-20T07:25:42.297Z,11.60
2023-03-20T07:28:32.612Z,11.60
2023-03-20T07:31:31.342Z,11.60
2023-03-20T07:34:55.745Z,11.60
2023-03-20T07:37:41.800Z,11.60
2023-03-20T07:40:28.728Z,11.60
2023-03-20T07:43:18.630Z,11.60
2023-03-20T07:46:23.442Z,11.60
2023-03-20T07:49:13.473Z,11.60
2023-03-20T07:52:01.313Z,11.70
2023-03-20T07:54:49.076Z,11.70
2023-03-20T07:57:34.683Z,11.70
2023-03-20T08:00:20.360Z,11.60
2023-03-20T08:03:08.004Z,11.70
2023-03-20T08:05:54.290Z,11.60
2023-03-20T08:08:39.974Z,11.60
2023-03-20T08:11:25.743Z,11.70
2023-03-20T08:14:11.612Z,11.70
2023-03-20T08:17:12.813Z,11.70
2023-03-20T08:19:59.736Z,11.70
2023-03-20T08:22:45.675Z,11.70
2023-03-20T08:25:33.703Z,11.70
2023-03-20T08:28:20.165Z,11.80
2023-03-20T08:31:09.933Z,11.80
2023-03-20T08:33:56.963Z,11.90
2023-03-20T08:36:42.502Z,11.90
2023-03-20T08:39:28.368Z,12.00
2023-03-20T08:42:14.242Z,12.00
2023-03-20T08:44:59.963Z,12.10
2023-03-20T08:47:49.791Z,12.10
2023-03-20T08:50:35.557Z,12.20
2023-03-20T08:53:22.278Z,12.10
2023-03-20T08:56:08.691Z,12.20
2023-03-20T08:58:56.191Z,12.20
2023-03-20T09:01:49.091Z,12.20
2023-03-20T09:04:35.447Z,12.10
2023-03-20T09:07:22.086Z,12.10
2023-03-20T09:10:08.960Z,12.00
2023-03-20T09:12:54.707Z,11.90
2023-03-20T09:15:40.766Z,11.90
2023-03-20T09:18:26.872Z,12.00
2023-03-20T09:21:12.597Z,11.90
2023-03-20T09:23:58.158Z,12.00
2023-03-20T09:26:44.026Z,12.10
2023-03-20T09:29:29.813Z,12.20
2023-03-20T09:32:15.683Z,12.10
2023-03-20T09:35:02.268Z,12.20
2023-03-20T09:37:48.862Z,12.30
2023-03-20T09:40:51.426Z,12.40
2023-03-20T09:43:36.981Z,12.40
2023-03-20T09:46:34.948Z,12.40
2023-03-20T09:49:29.907Z,12.50
2023-03-20T09:52:18.862Z,12.60
2023-03-20T09:55:08.816Z,12.70
2023-03-20T09:57:56.690Z,12.70
2023-03-20T10:00:44.975Z,12.80
2023-03-20T10:03:43.640Z,13.00
2023-03-20T10:06:29.393Z,13.10
2023-03-20T10:09:21.134Z,13.20
2023-03-20T10:12:26.266Z,13.20
2023-03-20T10:15:20.670Z,13.20
2023-03-20T10:18:24.325Z,13.30
2023-03-20T10:21:13.606Z,13.40
2023-03-20T10:24:06.447Z,13.40
2023-03-20T10:26:52.968Z,13.50
2023-03-20T10:29:48.973Z,13.40
2023-03-20T10:32:49.867Z,13.50
2023-03-20T10:35:54.617Z,13.50
2023-03-20T10:38:44.124Z,13.60
2023-03-20T10:41:32.460Z,13.60
2023-03-20T10:44:24.596Z,13.50
2023-03-20T10:47:12.787Z,13.60
2023-03-20T10:50:01.304Z,13.60
2023-03-20T10:52:48.440Z,13.70
2023-03-20T10:55:39.339Z,13.80
2023-03-20T10:58:27.027Z,13.80
2023-03-20T11:01:12.878Z,14.00
2023-03-20T11:04:00.250Z,14.10
2023-03-20T11:06:52.432Z,14.10
2023-03-20T11:09:37.941Z,14.30
2023-03-20T11:12:23.591Z,14.40
2023-03-20T11:15:19.748Z,14.60
2023-03-20T11:18:06.394Z,14.90
2023-03-20T11:20:53.960Z,15.10
2023-03-20T11:23:39.424Z,15.10
2023-03-20T11:26:34.448Z,15.10
2023-03-20T11:29:27.307Z,15.20
2023-03-20T11:32:34.845Z,15.10
2023-03-20T11:35:26.902Z,15.10
2023-03-20T11:38:21.185Z,15.10
2023-03-20T11:41:16.915Z,15.30
2023-03-20T11:44:02.611Z,15.30
2023-03-20T11:47:16.128Z,15.10
2023-03-20T11:50:03.878Z,15.00
2023-03-20T11:52:49.762Z,15.10
2023-03-20T11:55:36.038Z,15.20
2023-03-20T11:58:21.690Z,15.40
2023-03-20T12:01:08.830Z,15.50
2023-03-20T12:03:57.641Z,15.50
2023-03-20T12:06:43.361Z,15.40
2023-03-20T12:09:35.834Z,15.70
2023-03-20T12:12:42.932Z,15.80
2023-03-20T12:15:31.452Z,15.90
2023-03-20T12:18:29.165Z,16.10
2023-03-20T12:21:22.341Z,16.20
2023-03-20T12:24:14.071Z,16.40
2023-03-20T12:27:18.633Z,16.60
2023-03-20T12:30:11.027Z,16.70
2023-03-20T12:33:05.949Z,16.70
2023-03-20T12:35:52.261Z,16.80
2023-03-20T12:38:38.384Z,16.70
2023-03-20T12:41:42.951Z,16.50
2023-03-20T12:44:28.685Z,16.40
2023-03-20T12:47:33.113Z,16.40
2023-03-20T12:50:28.124Z,16.40
2023-03-20T12:53:13.958Z,16.50
2023-03-20T12:56:18.306Z,16.60
2023-03-20T12:59:23.114Z,16.60
2023-03-20T13:02:16.580Z,16.80
2023-03-20T13:05:11.443Z,16.70
2023-03-20T13:08:00.172Z,16.70
2023-03-20T13:11:09.284Z,16.70
2023-03-20T13:13:54.757Z,16.80
2023-03-20T13:16:46.257Z,16.80
2023-03-20T13:19:34.868Z,16.90
2023-03-20T13:22:23.655Z,16.90
2023-03-20T13:25:12.263Z,16.80
2023-03-20T13:28:04.496Z,16.70
2023-03-20T13:30:59.197Z,16.90
2023-03-20T13:33:53.798Z,17.00
2023-03-20T13:36:42.490Z,17.00
2023-03-20T13:39:28.357Z,17.00
2023-03-20T13:42:17.530Z,16.90
2023-03-20T13:45:19.981Z,16.80
2023-03-20T13:48:15.572Z,16.60
2023-03-20T13:51:13.589Z,16.40
2023-03-20T13:54:18.172Z,16.30
2023-03-20T13:57:19.361Z,16.20
2023-03-20T14:00:05.559Z,16.20
2023-03-20T14:02:51.359Z,16.10
2023-03-20T14:05:38.004Z,16.10
2023-03-20T14:08:30.806Z,16.10
2023-03-20T14:11:24.026Z,16.10
2023-03-20T14:14:15.007Z,16.30
2023-03-20T14:17:09.239Z,16.40
2023-03-20T14:19:55.947Z,16.50
2023-03-20T14:22:42.992Z,16.50
2023-03-20T14:25:33.459Z,16.60
2023-03-20T14:28:18.883Z,16.60
2023-03-20T14:31:12.802Z,16.60
2023-03-20T14:34:21.943Z,16.60
2023-03-20T14:37:26.261Z,16.60
2023-03-20T14:40:20.487Z,16.50
2023-03-20T14:43:28.431Z,16.40
2023-03-20T14:46:17.109Z,16.30
2023-03-20T14:49:04.924Z,16.30
2023-03-20T14:51:52.442Z,16.40
2023-03-20T14:54:41.538Z,16.50
2023-03-20T14:57:54.641Z,16.40
2023-03-20T15:00:45.996Z,16.40
2023-03-20T15:03:31.989Z,16.40
2023-03-20T15:06:19.034Z,16.40
2023-03-20T15:09:07.192Z,16.30
2023-03-20T15:11:53.286Z,16.40
2023-03-20T15:14:59.341Z,16.40
2023-03-20T15:17:45.756Z,16.30
2023-03-20T15:20:31.918Z,16.30
2023-03-20T15:23:17.768Z,16.20
2023-03-20T15:26:03.624Z,16.10
2023-03-20T15:28:49.192Z,16.10
2023-03-20T15:31:35.817Z,16.00
2023-03-20T15:34:23.145Z,16.00
2023-03-20T15:37:12.847Z,16.20
2023-03-20T15:40:00.333Z,16.10
2023-03-20T15:42:52.069Z,16.00
2023-03-20T15:45:39.791Z,16.10
2023-03-20T15:48:28.544Z,16.10
2023-03-20T15:51:14.307Z,16.10
2023-03-20T15:54:00.249Z,16.10
2023-03-20T15:56:46.744Z,16.00
2023-03-20T15:59:33.067Z,15.90
2023-03-20T16:02:19.426Z,15.90
2023-03-20T16:05:09.034Z,15.90
2023-03-20T16:07:55.323Z,15.90
2023-03-20T16:10:42.018Z,15.80
2023-03-20T16:13:30.947Z,15.80
2023-03-20T16:16:21.649Z,15.90
2023-03-20T16:19:07.746Z,15.70
2023-03-20T16:21:54.397Z,15.60
2023-03-20T16:24:40.435Z,15.60
2023-03-20T16:27:30.413Z,15.60
2023-03-20T16:30:22.455Z,15.60
2023-03-20T16:33:14.374Z,15.60
2023-03-20T16:36:00.702Z,15.50
2023-03-20T16:39:05.374Z,15.50
2023-03-20T16:41:56.230Z,15.40
2023-03-20T16:44:42.179Z,15.40
2023-03-20T16:47:35.092Z,15.30
2023-03-20T16:50:24.304Z,15.30
2023-03-20T16:53:15.375Z,15.30
2023-03-20T16:56:04.756Z,15.20
2023-03-20T16:58:50.476Z,15.10
2023-03-20T17:01:41.258Z,15.10
2023-03-20T17:04:38.960Z,15.10
2023-03-20T17:07:28.153Z,15.10
2023-03-20T17:10:16.656Z,15.00
2023-03-20T17:13:02.630Z,15.10
2023-03-20T17:15:48.447Z,15.00
2023-03-20T17:18:35.468Z,14.90
2023-03-20T17:21:21.281Z,14.90
2023-03-20T17:24:07.065Z,14.90
2023-03-20T17:26:54.790Z,14.80
2023-03-20T17:29:41.057Z,14.70
2023-03-20T17:32:26.836Z,14.60
2023-03-20T17:35:12.365Z,14.60
2023-03-20T17:37:59.887Z,14.60
2023-03-20T17:40:45.790Z,14.50
2023-03-20T17:43:31.549Z,14.40
2023-03-20T17:46:18.362Z,14.40
2023-03-20T17:49:06.035Z,14.30
2023-03-20T17:51:51.672Z,14.30
2023-03-20T17:54:37.323Z,14.20
2023-03-20T17:57:32.051Z,14.10
2023-03-20T18:00:21.870Z,14.10
2023-03-20T18:03:07.236Z,14.10
2023-03-20T18:05:53.080Z,14.10
2023-03-20T18:08:39.731Z,14.10
2023-03-20T18:11:26.486Z,14.00
2023-03-20T18:14:12.542Z,14.00
2023-03-20T18:16:58.078Z,13.90
2023-03-20T18:19:44.531Z,13.90
2023-03-20T18:22:30.019Z,13.90
2023-03-20T18:25:15.896Z,13.80
2023-03-20T18:28:02.323Z,13.80
2023-03-20T18:30:48.879Z,13.70
2023-03-20T18:33:34.704Z,13.70
2023-03-20T18:36:21.292Z,13.60
2023-03-20T18:39:07.238Z,13.50
2023-03-20T18:41:52.859Z,13.50
2023-03-20T18:44:38.227Z,13.40
2023-03-20T18:47:24.060Z,13.30
2023-03-20T18:50:26.760Z,13.30
2023-03-20T18:53:12.366Z,13.20
2023-03-20T18:55:57.965Z,13.20
2023-03-20T18:58:44.141Z,13.10
2023-03-20T19:01:29.842Z,13.00
2023-03-20T19:04:16.294Z,13.00
2023-03-20T19:07:01.764Z,12.90
2023-03-20T19:09:47.571Z,12.80
2023-03-20T19:12:33.401Z,12.70
2023-03-20T19:15:19.754Z,12.70
2023-03-20T19:18:06.822Z,12.60
2023-03-20T19:20:53.845Z,12.50
2023-03-20T19:23:39.173Z,12.40
2023-03-20T19:26:26.197Z,12.40
2023-03-20T19:29:13.830Z,12.40
2023-03-20T19:31:59.863Z,12.30
2023-03-20T19:35:35.211Z,12.30
2023-03-20T19:37:51.945Z,12.30
2023-03-20T19:40:42.514Z,12.20
2023-03-20T19:43:29.293Z,12.20
2023-03-20T19:46:28.455Z,12.20
2023-03-20T19:49:30.154Z,12.20
2023-03-20T19:52:20.237Z,12.10
2023-03-20T19:55:05.725Z,12.10
2023-03-20T19:57:51.951Z,12.10
2023-03-20T20:03:44.068Z,12.10
2023-03-20T20:06:32.248Z,12.10
2023-03-20T20:09:18.746Z,12.00
2023-03-20T20:12:04.572Z,12.00
2023-03-20T20:14:50.048Z,12.00
2023-03-20T20:17:35.397Z,12.00
2023-03-20T20:20:25.061Z,12.00
2023-03-20T20:23:28.388Z,11.90
2023-03-20T20:26:14.133Z,11.70
2023-03-20T20:28:59.878Z,11.70
2023-03-20T20:31:45.706Z,11.70
2023-03-20T20:40:44.559Z,11.60
2023-03-20T20:44:06.843Z,11.50
2023-03-20T20:46:36.478Z,11.50
2023-03-20T20:49:22.353Z,11.40
2023-03-20T20:52:08.394Z,11.40
2023-03-20T20:54:54.274Z,11.30
2023-03-20T20:57:39.842Z,11.30
2023-03-20T21:00:41.287Z,11.30
2023-03-20T21:03:32.059Z,11.20
2023-03-20T21:06:17.444Z,11.10
2023-03-20T21:09:03.324Z,11.10
2023-03-20T21:11:48.827Z,11.10
2023-03-20T21:14:34.508Z,11.10
2023-03-20T21:17:20.461Z,11.10
2023-03-20T21:20:06.409Z,11.10
2023-03-20T21:22:52.202Z,11.10
2023-03-20T21:25:41.179Z,11.10
2023-03-20T21:28:27.891Z,11.10
2023-03-20T21:31:25.869Z,11.00
2023-03-20T21:34:14.269Z,10.90
2023-03-20T21:37:01.031Z,11.00
2023-03-20T21:39:59.345Z,10.90
2023-03-20T21:42:44.777Z,10.90
2023-03-20T21:49:19.951Z,10.80
2023-03-20T21:55:14.956Z,10.70
2023-03-20T21:58:38.512Z,10.70
2023-03-20T22:05:02.172Z,10.70
2023-03-20T22:07:42.744Z,10.70
2023-03-20T22:11:18.158Z,10.60
2023-03-20T22:14:17.569Z,10.60
2023-03-20T22:17:33.206Z,10.60
2023-03-20T22:29:48.334Z,10.70
2023-03-20T22:36:10.496Z,10.70
2023-03-20T22:39:10.475Z,10.60
2023-03-20T22:44:58.549Z,10.60
2023-03-20T22:47:38.789Z,10.60
2023-03-20T22:50:24.544Z,10.60
2023-03-20T22:53:10.482Z,10.60
2023-03-20T22:55:56.017Z,10.60
2023-03-20T22:58:41.547Z,10.60
2023-03-20T23:01:27.903Z,10.60
2023-03-20T23:04:13.724Z,10.60
2023-03-20T23:07:01.660Z,10.60
2023-03-20T23:09:48.123Z,10.50
2023-03-20T23:12:33.661Z,10.50
2023-03-20T23:15:19.518Z,10.50
2023-03-20T23:18:05.930Z,10.50
2023-03-20T23:20:56.003Z,10.50
2023-03-20T23:23:41.749Z,10.50
2023-03-20T23:26:27.558Z,10.40
2023-03-20T23:29:13.286Z,10.40
2023-03-20T23:31:58.813Z,10.40
2023-03-20T23:34:44.496Z,10.30
2023-03-20T23:37:30.577Z,10.30
2023-03-20T23:40:16.282Z,10.30
2023-03-20T23:43:01.835Z,10.30
2023-03-20T23:45:47.474Z,10.30
2023-03-20T23:48:33.539Z,10.30
2023-03-20T23:51:19.106Z,10.30
2023-03-20T23:54:05.008Z,10.30
2023-03-20T23:56:50.755Z,10.30
2023-03-20T23:59:37.351Z,10.20
